Disclaimer

Please do not use the information listed here in-flight or in-navigation, as they are not provided to us by the airports but are provided by volunteers, so they might be outdated.

Search


Regions


Airport information page

Radio informations:
MF QUEBEC RDO - 122.3 MHz
QUEBEC RDO - 122.3 MHz

Airport informations:
Latitude: 48° 46' 31.00" N
Longitude: 064° 28' 43.00" W
Elevation: 108 feet - 33 meters
Operating hours: N/A
Operating agency: Municipal
Timezone: Second Sunday in March at 0200 to first Sunday in November at 0200 local time (Exception Arizona and that portion of Indiana in the Eastern Time Zone)
Fuel: Jet A1, without icing nhibitor.

100/130 MIL Spec, low lead, aviation gasoline (BLUE)

Runway information:
11/29 - 4500 x 150 feet< - >1372 x 46 meters

Recent METARs:
CYGP 180626Z 30009KT 2 1/2SM -SN OVC014 M05/M07 A2992 RMK SN2SC6 SLP136
CYGP 180700Z 28011KT 10SM FEW030 M06/M08 A2994 RMK SC2 SLP141
CYGP 180700Z 28011KT 10SM FEW030 M06/M08 A2994 RMK SC2 SLP141

Airport on the map: